Información del aeropuerto GMTT

Información de pista
Pista 07 Longitud 6562 ft Anchura 98 ft
Elevación 0 ft Umbral 0 ft Rumbo 69
Pista 25 Longitud 6562 ft Anchura 98 ft
Elevación 0 ft Umbral 0 ft Rumbo 249
Pista 10 Longitud 11483 ft Anchura 148 ft
Elevación 20 ft Umbral 0 ft Rumbo 96
Pista 28 Longitud 11483 ft Anchura 148 ft
Elevación 62 ft Umbral 1640 ft Rumbo 276
Frecuencias del aeropuerto
Tipo APP Nombre TANGER APP Frecuencia 121.2 MHZ
Tipo TWR Nombre TANGER TWR Frecuencia 119.5 MHZ
Radioayudas del aeropuerto
Tipo VOR-DME Nombre Tanger Frecuencia 115900 KHZ
Información meteorológica del aeropuerto y NOTAM
ADDS - METARS form results

(0251 UTC 28 February 2021)
Data provider http://aviationweather.gov/metar/data/
 
METAR text: GMTT 280230Z 08015KT CAVOK 14/11 Q1016 NOSIG
Conditions at: GMTT (TANGIER/BOUKHALF, MA) observed 0230 UTC 28 February 2021
Temperature: 14.0°C (57°F)
Dewpoint: 11.0°C (52°F) [RH = 82%]
Pressure (altimeter): 30.00 inches Hg (1016.0 mb)
Winds: from the E (80 degrees) at 17 MPH (15 knots; 7.7 m/s)
Visibility: 6 or more miles (10+ km)
Ceiling: ceiling and visibility are OK
Clouds: unknown
Weather: no significant weather observed at this time

METAR text: GMTT 280200Z 07016KT CAVOK 14/11 Q1016 NOSIG
Conditions at: GMTT (TANGIER/BOUKHALF, MA) observed 0200 UTC 28 February 2021
Temperature: 14.0°C (57°F)
Dewpoint: 11.0°C (52°F) [RH = 82%]
Pressure (altimeter): 30.00 inches Hg (1016.0 mb)
Winds: from the ENE (70 degrees) at 18 MPH (16 knots; 8.2 m/s)
Visibility: 6 or more miles (10+ km)
Ceiling: ceiling and visibility are OK
Clouds: unknown
Weather: no significant weather observed at this time

Forecast for: GMTT (TANGIER/BOUKHALF, MA)
Text: TAF GMTT 272300Z 2800/0106 08014KT CAVOK
Forecast period: 0000 UTC 28 February 2021 to 0600 UTC 01 March 2021
Forecast type: FROM: standard forecast or significant change
Winds: from the E (80 degrees) at 16 MPH (14 knots; 7.2 m/s)
Visibility: 6 or more miles (10+ km)
Ceiling: unknown
Clouds: missing
Weather: NSW  (no significant weather)
Text: TEMPO 2800/2810 09020G32KT
Forecast period: 0000 to 1000 UTC 28 February 2021
Forecast type: TEMPORARY: The following changes expected for less than half the time period
Winds: from the E (90 degrees) at 23 MPH (20 knots; 10.3 m/s)
gusting to 37 MPH (32 knots; 16.5 m/s)
Visibility: missing
Ceiling: unknown
Clouds: missing
Weather: no significant weather forecast for this period